sensor_id;sensor_type;location;lat;lon;timestamp;P1;durP1;ratioP1;P2;durP2;ratioP2
50585;SDS011;36542;51.700;8.846;2023-06-05T00:01:11;3.67;;;2.87;;
50585;SDS011;36542;51.700;8.846;2023-06-05T00:03:36;3.67;;;2.83;;
50585;SDS011;36542;51.700;8.846;2023-06-05T00:06:04;5.10;;;3.07;;
50585;SDS011;36542;51.700;8.846;2023-06-05T00:08:30;4.30;;;3.10;;
50585;SDS011;36542;51.700;8.846;2023-06-05T00:10:55;4.10;;;2.83;;
50585;SDS011;36542;51.700;8.846;2023-06-05T00:13:21;5.00;;;2.87;;
50585;SDS011;36542;51.700;8.846;2023-06-05T00:15:46;5.87;;;3.07;;
50585;SDS011;36542;51.700;8.846;2023-06-05T00:18:12;4.57;;;2.70;;
50585;SDS011;36542;51.700;8.846;2023-06-05T00:20:39;6.80;;;3.10;;
50585;SDS011;36542;51.700;8.846;2023-06-05T00:23:05;4.83;;;3.00;;
50585;SDS011;36542;51.700;8.846;2023-06-05T00:25:30;3.43;;;3.07;;
50585;SDS011;36542;51.700;8.846;2023-06-05T00:27:56;4.70;;;3.10;;
50585;SDS011;36542;51.700;8.846;2023-06-05T00:30:21;4.37;;;2.73;;
50585;SDS011;36542;51.700;8.846;2023-06-05T00:32:47;5.63;;;3.10;;
50585;SDS011;36542;51.700;8.846;2023-06-05T00:35:13;3.83;;;2.73;;
50585;SDS011;36542;51.700;8.846;2023-06-05T00:37:38;4.43;;;3.30;;
50585;SDS011;36542;51.700;8.846;2023-06-05T00:40:04;3.87;;;3.17;;
50585;SDS011;36542;51.700;8.846;2023-06-05T00:42:31;5.73;;;3.60;;
50585;SDS011;36542;51.700;8.846;2023-06-05T00:44:56;5.43;;;3.73;;
50585;SDS011;36542;51.700;8.846;2023-06-05T00:47:22;4.70;;;3.33;;
50585;SDS011;36542;51.700;8.846;2023-06-05T00:49:48;5.70;;;3.47;;
50585;SDS011;36542;51.700;8.846;2023-06-05T00:52:14;4.03;;;3.40;;
50585;SDS011;36542;51.700;8.846;2023-06-05T00:54:40;6.80;;;4.33;;
50585;SDS011;36542;51.700;8.846;2023-06-05T00:57:07;8.10;;;3.90;;
50585;SDS011;36542;51.700;8.846;2023-06-05T00:59:33;5.80;;;3.83;;
50585;SDS011;36542;51.700;8.846;2023-06-05T01:02:00;9.07;;;4.70;;
50585;SDS011;36542;51.700;8.846;2023-06-05T01:04:27;5.67;;;4.47;;
50585;SDS011;36542;51.700;8.846;2023-06-05T01:06:53;8.37;;;4.40;;
50585;SDS011;36542;51.700;8.846;2023-06-05T01:09:22;6.00;;;3.97;;
50585;SDS011;36542;51.700;8.846;2023-06-05T01:12:09;7.13;;;4.30;;
50585;SDS011;36542;51.700;8.846;2023-06-05T01:14:41;6.50;;;4.43;;
50585;SDS011;36542;51.700;8.846;2023-06-05T01:17:11;4.83;;;4.07;;
50585;SDS011;36542;51.700;8.846;2023-06-05T01:19:38;6.27;;;4.00;;
50585;SDS011;36542;51.700;8.846;2023-06-05T01:22:04;5.83;;;4.10;;
50585;SDS011;36542;51.700;8.846;2023-06-05T01:24:30;5.97;;;3.90;;
50585;SDS011;36542;51.700;8.846;2023-06-05T01:30:05;6.43;;;3.73;;
50585;SDS011;36542;51.700;8.846;2023-06-05T01:32:49;6.50;;;4.20;;
50585;SDS011;36542;51.700;8.846;2023-06-05T01:35:18;4.97;;;3.77;;
50585;SDS011;36542;51.700;8.846;2023-06-05T01:37:46;7.87;;;4.00;;
50585;SDS011;36542;51.700;8.846;2023-06-05T01:40:15;5.73;;;3.90;;
50585;SDS011;36542;51.700;8.846;2023-06-05T01:42:42;7.53;;;4.10;;
50585;SDS011;36542;51.700;8.846;2023-06-05T01:45:09;7.03;;;3.80;;
50585;SDS011;36542;51.700;8.846;2023-06-05T01:47:36;6.03;;;4.07;;
50585;SDS011;36542;51.700;8.846;2023-06-05T01:50:03;6.57;;;4.50;;
50585;SDS011;36542;51.700;8.846;2023-06-05T01:52:29;5.63;;;4.10;;
50585;SDS011;36542;51.700;8.846;2023-06-05T01:54:55;5.93;;;3.97;;
50585;SDS011;36542;51.700;8.846;2023-06-05T01:57:27;6.43;;;3.97;;
50585;SDS011;36542;51.700;8.846;2023-06-05T01:59:53;7.57;;;3.83;;
50585;SDS011;36542;51.700;8.846;2023-06-05T02:02:19;5.03;;;4.13;;
50585;SDS011;36542;51.700;8.846;2023-06-05T02:04:46;5.63;;;3.77;;
50585;SDS011;36542;51.700;8.846;2023-06-05T02:07:12;8.40;;;3.87;;
50585;SDS011;36542;51.700;8.846;2023-06-05T02:09:41;5.40;;;3.80;;
50585;SDS011;36542;51.700;8.846;2023-06-05T02:12:07;7.47;;;4.07;;
50585;SDS011;36542;51.700;8.846;2023-06-05T02:14:33;6.57;;;4.10;;
50585;SDS011;36542;51.700;8.846;2023-06-05T02:17:03;6.03;;;4.27;;
50585;SDS011;36542;51.700;8.846;2023-06-05T02:19:32;5.03;;;3.80;;
50585;SDS011;36542;51.700;8.846;2023-06-05T02:21:58;6.00;;;4.00;;
50585;SDS011;36542;51.700;8.846;2023-06-05T02:24:24;5.40;;;4.30;;
50585;SDS011;36542;51.700;8.846;2023-06-05T02:26:50;5.17;;;3.90;;
50585;SDS011;36542;51.700;8.846;2023-06-05T02:29:16;5.97;;;3.77;;
50585;SDS011;36542;51.700;8.846;2023-06-05T02:31:41;6.67;;;4.37;;
50585;SDS011;36542;51.700;8.846;2023-06-05T02:34:07;6.40;;;4.53;;
50585;SDS011;36542;51.700;8.846;2023-06-05T02:36:32;5.47;;;4.40;;
50585;SDS011;36542;51.700;8.846;2023-06-05T02:39:00;6.87;;;4.60;;
50585;SDS011;36542;51.700;8.846;2023-06-05T02:41:27;4.57;;;3.87;;
50585;SDS011;36542;51.700;8.846;2023-06-05T02:43:53;6.97;;;4.53;;
50585;SDS011;36542;51.700;8.846;2023-06-05T02:46:19;4.73;;;4.10;;
50585;SDS011;36542;51.700;8.846;2023-06-05T02:48:46;6.47;;;4.77;;
50585;SDS011;36542;51.700;8.846;2023-06-05T02:51:12;8.30;;;4.20;;
50585;SDS011;36542;51.700;8.846;2023-06-05T02:53:38;7.17;;;4.50;;
50585;SDS011;36542;51.700;8.846;2023-06-05T02:56:04;6.27;;;4.37;;
50585;SDS011;36542;51.700;8.846;2023-06-05T02:58:30;8.67;;;4.50;;
50585;SDS011;36542;51.700;8.846;2023-06-05T03:00:56;6.97;;;4.03;;
50585;SDS011;36542;51.700;8.846;2023-06-05T03:03:26;4.97;;;3.80;;
50585;SDS011;36542;51.700;8.846;2023-06-05T03:05:54;6.87;;;4.60;;
50585;SDS011;36542;51.700;8.846;2023-06-05T03:08:21;6.17;;;4.40;;
50585;SDS011;36542;51.700;8.846;2023-06-05T03:10:47;5.27;;;4.37;;
50585;SDS011;36542;51.700;8.846;2023-06-05T03:13:13;6.57;;;4.10;;
50585;SDS011;36542;51.700;8.846;2023-06-05T03:15:38;5.17;;;4.20;;
50585;SDS011;36542;51.700;8.846;2023-06-05T03:18:04;6.23;;;4.30;;
50585;SDS011;36542;51.700;8.846;2023-06-05T03:20:30;6.73;;;4.10;;
50585;SDS011;36542;51.700;8.846;2023-06-05T03:22:55;6.10;;;4.03;;
50585;SDS011;36542;51.700;8.846;2023-06-05T03:25:21;4.33;;;3.93;;
50585;SDS011;36542;51.700;8.846;2023-06-05T03:27:48;5.60;;;3.93;;
50585;SDS011;36542;51.700;8.846;2023-06-05T03:30:14;5.40;;;4.20;;
50585;SDS011;36542;51.700;8.846;2023-06-05T03:32:42;6.50;;;3.93;;
50585;SDS011;36542;51.700;8.846;2023-06-05T03:35:07;5.03;;;3.90;;
50585;SDS011;36542;51.700;8.846;2023-06-05T03:37:33;6.47;;;3.87;;
50585;SDS011;36542;51.700;8.846;2023-06-05T03:39:59;5.77;;;4.40;;
50585;SDS011;36542;51.700;8.846;2023-06-05T03:42:24;8.30;;;4.47;;
50585;SDS011;36542;51.700;8.846;2023-06-05T03:44:50;6.60;;;4.27;;
50585;SDS011;36542;51.700;8.846;2023-06-05T03:47:15;5.37;;;4.20;;
50585;SDS011;36542;51.700;8.846;2023-06-05T03:49:41;10.63;;;4.33;;
50585;SDS011;36542;51.700;8.846;2023-06-05T03:52:12;7.70;;;4.80;;
50585;SDS011;36542;51.700;8.846;2023-06-05T03:54:39;5.30;;;4.00;;
50585;SDS011;36542;51.700;8.846;2023-06-05T03:57:05;6.40;;;4.20;;
50585;SDS011;36542;51.700;8.846;2023-06-05T03:59:34;9.40;;;4.40;;
50585;SDS011;36542;51.700;8.846;2023-06-05T04:02:00;6.73;;;4.60;;
50585;SDS011;36542;51.700;8.846;2023-06-05T04:04:27;4.90;;;4.40;;
50585;SDS011;36542;51.700;8.846;2023-06-05T04:06:54;5.53;;;4.03;;
50585;SDS011;36542;51.700;8.846;2023-06-05T04:09:20;5.10;;;4.10;;
50585;SDS011;36542;51.700;8.846;2023-06-05T04:11:46;5.93;;;4.10;;
50585;SDS011;36542;51.700;8.846;2023-06-05T04:14:12;6.00;;;4.23;;
50585;SDS011;36542;51.700;8.846;2023-06-05T04:16:38;6.47;;;4.03;;
50585;SDS011;36542;51.700;8.846;2023-06-05T04:19:05;5.30;;;4.07;;
50585;SDS011;36542;51.700;8.846;2023-06-05T04:21:32;6.80;;;4.60;;
50585;SDS011;36542;51.700;8.846;2023-06-05T04:23:59;7.47;;;4.30;;
50585;SDS011;36542;51.700;8.846;2023-06-05T04:26:25;6.30;;;3.97;;
50585;SDS011;36542;51.700;8.846;2023-06-05T04:28:51;5.87;;;4.07;;
50585;SDS011;36542;51.700;8.846;2023-06-05T04:31:17;4.23;;;3.80;;
50585;SDS011;36542;51.700;8.846;2023-06-05T04:33:43;5.20;;;4.23;;
50585;SDS011;36542;51.700;8.846;2023-06-05T04:36:08;4.63;;;4.10;;
50585;SDS011;36542;51.700;8.846;2023-06-05T04:38:34;4.27;;;3.50;;
50585;SDS011;36542;51.700;8.846;2023-06-05T04:40:59;6.37;;;3.83;;
50585;SDS011;36542;51.700;8.846;2023-06-05T04:43:25;7.33;;;4.30;;
50585;SDS011;36542;51.700;8.846;2023-06-05T04:45:51;5.37;;;4.00;;
50585;SDS011;36542;51.700;8.846;2023-06-05T04:48:16;5.83;;;3.80;;
50585;SDS011;36542;51.700;8.846;2023-06-05T04:50:42;4.73;;;3.87;;
50585;SDS011;36542;51.700;8.846;2023-06-05T04:53:07;9.17;;;3.83;;
50585;SDS011;36542;51.700;8.846;2023-06-05T04:55:33;7.03;;;3.90;;
50585;SDS011;36542;51.700;8.846;2023-06-05T04:57:58;5.90;;;3.77;;
50585;SDS011;36542;51.700;8.846;2023-06-05T05:00:26;7.33;;;4.23;;
50585;SDS011;36542;51.700;8.846;2023-06-05T05:02:52;6.07;;;4.17;;
50585;SDS011;36542;51.700;8.846;2023-06-05T05:05:18;4.33;;;3.77;;
50585;SDS011;36542;51.700;8.846;2023-06-05T05:07:44;7.33;;;3.90;;
50585;SDS011;36542;51.700;8.846;2023-06-05T05:10:10;7.17;;;4.13;;
50585;SDS011;36542;51.700;8.846;2023-06-05T05:12:36;5.07;;;4.03;;
50585;SDS011;36542;51.700;8.846;2023-06-05T05:15:02;4.27;;;3.60;;
50585;SDS011;36542;51.700;8.846;2023-06-05T05:17:29;5.33;;;3.60;;
50585;SDS011;36542;51.700;8.846;2023-06-05T05:19:55;5.23;;;3.67;;
50585;SDS011;36542;51.700;8.846;2023-06-05T05:22:21;5.03;;;3.60;;
50585;SDS011;36542;51.700;8.846;2023-06-05T05:24:46;3.93;;;3.43;;
50585;SDS011;36542;51.700;8.846;2023-06-05T05:27:12;4.73;;;3.40;;
50585;SDS011;36542;51.700;8.846;2023-06-05T05:29:37;6.83;;;3.23;;
50585;SDS011;36542;51.700;8.846;2023-06-05T05:32:03;5.87;;;3.23;;
50585;SDS011;36542;51.700;8.846;2023-06-05T05:34:29;3.77;;;2.80;;
50585;SDS011;36542;51.700;8.846;2023-06-05T05:36:54;6.87;;;3.03;;
50585;SDS011;36542;51.700;8.846;2023-06-05T05:39:20;6.17;;;2.83;;
50585;SDS011;36542;51.700;8.846;2023-06-05T05:41:45;4.57;;;2.80;;
50585;SDS011;36542;51.700;8.846;2023-06-05T05:44:11;5.18;;;2.80;;
50585;SDS011;36542;51.700;8.846;2023-06-05T05:46:37;4.85;;;3.17;;
50585;SDS011;36542;51.700;8.846;2023-06-05T05:49:02;3.78;;;2.75;;
50585;SDS011;36542;51.700;8.846;2023-06-05T05:51:27;3.40;;;2.90;;
50585;SDS011;36542;51.700;8.846;2023-06-05T05:53:53;5.22;;;3.08;;
50585;SDS011;36542;51.700;8.846;2023-06-05T05:56:19;3.30;;;2.75;;
50585;SDS011;36542;51.700;8.846;2023-06-05T05:58:44;5.32;;;2.65;;
50585;SDS011;36542;51.700;8.846;2023-06-05T06:01:10;4.60;;;2.80;;
50585;SDS011;36542;51.700;8.846;2023-06-05T06:03:37;5.25;;;3.05;;
50585;SDS011;36542;51.700;8.846;2023-06-05T06:06:04;2.38;;;2.17;;
50585;SDS011;36542;51.700;8.846;2023-06-05T06:08:32;3.63;;;2.80;;
50585;SDS011;36542;51.700;8.846;2023-06-05T06:10:58;4.50;;;2.70;;
50585;SDS011;36542;51.700;8.846;2023-06-05T06:13:24;3.33;;;2.58;;
50585;SDS011;36542;51.700;8.846;2023-06-05T06:15:49;2.90;;;2.30;;
50585;SDS011;36542;51.700;8.846;2023-06-05T06:18:15;4.90;;;2.42;;
50585;SDS011;36542;51.700;8.846;2023-06-05T06:20:41;3.13;;;2.75;;
50585;SDS011;36542;51.700;8.846;2023-06-05T06:23:06;5.57;;;2.75;;
50585;SDS011;36542;51.700;8.846;2023-06-05T06:25:32;4.97;;;2.70;;
50585;SDS011;36542;51.700;8.846;2023-06-05T06:27:58;3.25;;;2.53;;
50585;SDS011;36542;51.700;8.846;2023-06-05T06:30:27;2.25;;;2.00;;
50585;SDS011;36542;51.700;8.846;2023-06-05T06:32:52;2.58;;;2.00;;
50585;SDS011;36542;51.700;8.846;2023-06-05T06:35:22;3.47;;;2.20;;
50585;SDS011;36542;51.700;8.846;2023-06-05T06:37:48;2.47;;;2.28;;
50585;SDS011;36542;51.700;8.846;2023-06-05T06:40:17;4.50;;;2.55;;
50585;SDS011;36542;51.700;8.846;2023-06-05T06:42:42;4.55;;;2.70;;
50585;SDS011;36542;51.700;8.846;2023-06-05T06:45:08;6.53;;;2.67;;
50585;SDS011;36542;51.700;8.846;2023-06-05T06:47:34;2.45;;;2.22;;
50585;SDS011;36542;51.700;8.846;2023-06-05T06:49:59;2.53;;;2.33;;
50585;SDS011;36542;51.700;8.846;2023-06-05T06:52:25;4.97;;;2.70;;
50585;SDS011;36542;51.700;8.846;2023-06-05T06:54:50;2.70;;;2.50;;
50585;SDS011;36542;51.700;8.846;2023-06-05T06:57:16;3.55;;;2.30;;
50585;SDS011;36542;51.700;8.846;2023-06-05T06:59:41;4.35;;;2.40;;
50585;SDS011;36542;51.700;8.846;2023-06-05T07:02:08;4.53;;;2.50;;
50585;SDS011;36542;51.700;8.846;2023-06-05T07:04:35;4.03;;;2.40;;
50585;SDS011;36542;51.700;8.846;2023-06-05T07:07:01;2.47;;;2.28;;
50585;SDS011;36542;51.700;8.846;2023-06-05T07:09:27;5.40;;;2.50;;
50585;SDS011;36542;51.700;8.846;2023-06-05T07:11:56;4.35;;;2.72;;
50585;SDS011;36542;51.700;8.846;2023-06-05T07:14:21;3.25;;;1.88;;
50585;SDS011;36542;51.700;8.846;2023-06-05T07:16:47;3.72;;;1.80;;
50585;SDS011;36542;51.700;8.846;2023-06-05T07:19:14;3.67;;;2.70;;
50585;SDS011;36542;51.700;8.846;2023-06-05T07:21:40;2.83;;;2.35;;
50585;SDS011;36542;51.700;8.846;2023-06-05T07:24:06;3.30;;;2.10;;
50585;SDS011;36542;51.700;8.846;2023-06-05T07:26:32;2.35;;;1.88;;
50585;SDS011;36542;51.700;8.846;2023-06-05T07:28:58;2.95;;;1.92;;
50585;SDS011;36542;51.700;8.846;2023-06-05T07:31:24;5.20;;;1.88;;
50585;SDS011;36542;51.700;8.846;2023-06-05T07:33:49;2.28;;;1.67;;
50585;SDS011;36542;51.700;8.846;2023-06-05T07:36:15;3.42;;;1.70;;
50585;SDS011;36542;51.700;8.846;2023-06-05T07:38:40;2.35;;;1.70;;
50585;SDS011;36542;51.700;8.846;2023-06-05T07:41:06;2.75;;;1.70;;
50585;SDS011;36542;51.700;8.846;2023-06-05T07:43:33;2.75;;;1.77;;
50585;SDS011;36542;51.700;8.846;2023-06-05T07:45:59;1.73;;;1.63;;
50585;SDS011;36542;51.700;8.846;2023-06-05T07:48:25;1.95;;;1.70;;
50585;SDS011;36542;51.700;8.846;2023-06-05T07:50:50;3.40;;;1.75;;
50585;SDS011;36542;51.700;8.846;2023-06-05T07:53:16;3.03;;;1.98;;
50585;SDS011;36542;51.700;8.846;2023-06-05T07:55:41;2.42;;;1.73;;
50585;SDS011;36542;51.700;8.846;2023-06-05T07:58:07;3.45;;;1.63;;
50585;SDS011;36542;51.700;8.846;2023-06-05T08:00:33;1.80;;;1.60;;
50585;SDS011;36542;51.700;8.846;2023-06-05T08:02:59;2.08;;;1.73;;
50585;SDS011;36542;51.700;8.846;2023-06-05T08:05:25;2.60;;;1.60;;
50585;SDS011;36542;51.700;8.846;2023-06-05T08:07:50;2.25;;;1.90;;
50585;SDS011;36542;51.700;8.846;2023-06-05T08:10:16;5.35;;;1.88;;
50585;SDS011;36542;51.700;8.846;2023-06-05T08:12:42;4.00;;;1.70;;
50585;SDS011;36542;51.700;8.846;2023-06-05T08:15:07;3.17;;;1.60;;
50585;SDS011;36542;51.700;8.846;2023-06-05T08:17:33;2.40;;;1.70;;
50585;SDS011;36542;51.700;8.846;2023-06-05T08:19:58;2.47;;;1.70;;
50585;SDS011;36542;51.700;8.846;2023-06-05T08:22:25;1.98;;;1.77;;
50585;SDS011;36542;51.700;8.846;2023-06-05T08:24:50;3.78;;;1.50;;
50585;SDS011;36542;51.700;8.846;2023-06-05T08:27:18;2.63;;;1.70;;
50585;SDS011;36542;51.700;8.846;2023-06-05T08:29:44;2.33;;;1.63;;
50585;SDS011;36542;51.700;8.846;2023-06-05T08:32:10;1.77;;;1.60;;
50585;SDS011;36542;51.700;8.846;2023-06-05T08:34:35;2.17;;;1.73;;
50585;SDS011;36542;51.700;8.846;2023-06-05T08:37:01;2.83;;;1.60;;
50585;SDS011;36542;51.700;8.846;2023-06-05T08:39:27;1.88;;;1.50;;
50585;SDS011;36542;51.700;8.846;2023-06-05T08:41:57;3.35;;;1.80;;
50585;SDS011;36542;51.700;8.846;2023-06-05T08:44:25;1.50;;;1.40;;
50585;SDS011;36542;51.700;8.846;2023-06-05T08:46:55;3.72;;;1.65;;
50585;SDS011;36542;51.700;8.846;2023-06-05T08:49:26;3.55;;;1.40;;
50585;SDS011;36542;51.700;8.846;2023-06-05T08:52:03;2.47;;;1.50;;
50585;SDS011;36542;51.700;8.846;2023-06-05T08:54:31;1.85;;;1.75;;
50585;SDS011;36542;51.700;8.846;2023-06-05T08:57:02;3.08;;;1.90;;
50585;SDS011;36542;51.700;8.846;2023-06-05T08:59:29;4.05;;;1.77;;
50585;SDS011;36542;51.700;8.846;2023-06-05T09:01:56;1.77;;;1.30;;
50585;SDS011;36542;51.700;8.846;2023-06-05T09:04:21;3.13;;;1.50;;
50585;SDS011;36542;51.700;8.846;2023-06-05T09:06:48;2.45;;;1.70;;
50585;SDS011;36542;51.700;8.846;2023-06-05T09:09:17;2.00;;;1.58;;
50585;SDS011;36542;51.700;8.846;2023-06-05T09:11:43;5.55;;;1.70;;
50585;SDS011;36542;51.700;8.846;2023-06-05T09:14:08;3.90;;;1.67;;
50585;SDS011;36542;51.700;8.846;2023-06-05T09:16:42;2.38;;;1.63;;
50585;SDS011;36542;51.700;8.846;2023-06-05T09:19:09;1.50;;;1.10;;
50585;SDS011;36542;51.700;8.846;2023-06-05T09:21:36;2.88;;;2.03;;
50585;SDS011;36542;51.700;8.846;2023-06-05T09:26:45;2.35;;;1.55;;
50585;SDS011;36542;51.700;8.846;2023-06-05T09:29:10;1.85;;;1.50;;
50585;SDS011;36542;51.700;8.846;2023-06-05T09:31:42;4.20;;;1.50;;
50585;SDS011;36542;51.700;8.846;2023-06-05T09:34:08;1.40;;;1.30;;
50585;SDS011;36542;51.700;8.846;2023-06-05T09:36:33;2.15;;;1.77;;
50585;SDS011;36542;51.700;8.846;2023-06-05T09:39:13;2.45;;;2.08;;
50585;SDS011;36542;51.700;8.846;2023-06-05T09:41:43;4.07;;;1.80;;
50585;SDS011;36542;51.700;8.846;2023-06-05T09:44:09;2.10;;;1.88;;
50585;SDS011;36542;51.700;8.846;2023-06-05T09:46:41;2.05;;;1.65;;
50585;SDS011;36542;51.700;8.846;2023-06-05T09:49:26;2.40;;;1.90;;
50585;SDS011;36542;51.700;8.846;2023-06-05T09:51:56;1.95;;;1.73;;
50585;SDS011;36542;51.700;8.846;2023-06-05T09:54:24;1.95;;;1.60;;
50585;SDS011;36542;51.700;8.846;2023-06-05T09:56:51;5.53;;;1.80;;
50585;SDS011;36542;51.700;8.846;2023-06-05T09:59:33;2.35;;;1.55;;
50585;SDS011;36542;51.700;8.846;2023-06-05T10:02:03;1.70;;;1.58;;
50585;SDS011;36542;51.700;8.846;2023-06-05T10:04:32;2.00;;;1.88;;
50585;SDS011;36542;51.700;8.846;2023-06-05T10:07:04;4.05;;;1.92;;
50585;SDS011;36542;51.700;8.846;2023-06-05T10:09:30;3.20;;;2.13;;
50585;SDS011;36542;51.700;8.846;2023-06-05T10:11:59;2.53;;;2.10;;
50585;SDS011;36542;51.700;8.846;2023-06-05T10:14:25;3.70;;;2.00;;
50585;SDS011;36542;51.700;8.846;2023-06-05T10:16:51;3.55;;;1.90;;
50585;SDS011;36542;51.700;8.846;2023-06-05T10:19:17;2.38;;;1.75;;
50585;SDS011;36542;51.700;8.846;2023-06-05T10:21:50;2.75;;;1.77;;
50585;SDS011;36542;51.700;8.846;2023-06-05T10:35:29;2.65;;;1.98;;
50585;SDS011;36542;51.700;8.846;2023-06-05T10:40:42;2.42;;;2.03;;
50585;SDS011;36542;51.700;8.846;2023-06-05T10:51:48;3.67;;;1.88;;
50585;SDS011;36542;51.700;8.846;2023-06-05T10:59:18;2.50;;;2.22;;
50585;SDS011;36542;51.700;8.846;2023-06-05T11:05:04;4.00;;;1.90;;
50585;SDS011;36542;51.700;8.846;2023-06-05T11:07:26;2.03;;;1.85;;
50585;SDS011;36542;51.700;8.846;2023-06-05T11:15:00;1.70;;;1.60;;
50585;SDS011;36542;51.700;8.846;2023-06-05T11:17:30;2.28;;;2.08;;
50585;SDS011;36542;51.700;8.846;2023-06-05T11:19:57;2.20;;;2.00;;
50585;SDS011;36542;51.700;8.846;2023-06-05T11:22:23;2.42;;;1.90;;
50585;SDS011;36542;51.700;8.846;2023-06-05T11:27:41;4.85;;;1.98;;
50585;SDS011;36542;51.700;8.846;2023-06-05T11:30:14;2.08;;;1.73;;
50585;SDS011;36542;51.700;8.846;2023-06-05T11:32:40;2.45;;;1.80;;
50585;SDS011;36542;51.700;8.846;2023-06-05T11:35:06;3.28;;;2.20;;
50585;SDS011;36542;51.700;8.846;2023-06-05T11:37:33;2.47;;;1.92;;
50585;SDS011;36542;51.700;8.846;2023-06-05T11:40:01;3.40;;;2.10;;
50585;SDS011;36542;51.700;8.846;2023-06-05T11:42:30;4.10;;;1.92;;
50585;SDS011;36542;51.700;8.846;2023-06-05T11:44:56;5.03;;;2.30;;
50585;SDS011;36542;51.700;8.846;2023-06-05T11:47:25;2.95;;;2.00;;
50585;SDS011;36542;51.700;8.846;2023-06-05T11:49:53;2.38;;;2.08;;
50585;SDS011;36542;51.700;8.846;2023-06-05T11:52:19;3.70;;;2.38;;
50585;SDS011;36542;51.700;8.846;2023-06-05T11:54:47;2.65;;;2.33;;
50585;SDS011;36542;51.700;8.846;2023-06-05T11:57:40;4.55;;;2.60;;
50585;SDS011;36542;51.700;8.846;2023-06-05T12:00:07;2.65;;;2.40;;
50585;SDS011;36542;51.700;8.846;2023-06-05T12:02:34;2.47;;;2.15;;
50585;SDS011;36542;51.700;8.846;2023-06-05T12:05:01;6.45;;;2.80;;
50585;SDS011;36542;51.700;8.846;2023-06-05T12:07:31;4.72;;;2.55;;
50585;SDS011;36542;51.700;8.846;2023-06-05T12:10:01;3.00;;;2.45;;
50585;SDS011;36542;51.700;8.846;2023-06-05T12:12:28;4.07;;;2.28;;
50585;SDS011;36542;51.700;8.846;2023-06-05T12:14:54;3.42;;;2.22;;
50585;SDS011;36542;51.700;8.846;2023-06-05T12:17:20;3.95;;;2.20;;
50585;SDS011;36542;51.700;8.846;2023-06-05T12:19:53;3.05;;;2.35;;
50585;SDS011;36542;51.700;8.846;2023-06-05T12:22:19;4.70;;;2.40;;
50585;SDS011;36542;51.700;8.846;2023-06-05T12:24:45;4.50;;;2.95;;
50585;SDS011;36542;51.700;8.846;2023-06-05T12:27:11;4.70;;;2.35;;
50585;SDS011;36542;51.700;8.846;2023-06-05T12:29:37;4.20;;;2.33;;
50585;SDS011;36542;51.700;8.846;2023-06-05T12:32:19;3.88;;;2.47;;
50585;SDS011;36542;51.700;8.846;2023-06-05T12:34:46;2.38;;;2.17;;
50585;SDS011;36542;51.700;8.846;2023-06-05T12:37:25;5.05;;;2.70;;
50585;SDS011;36542;51.700;8.846;2023-06-05T12:39:57;4.65;;;3.03;;
50585;SDS011;36542;51.700;8.846;2023-06-05T12:42:23;3.60;;;2.67;;
50585;SDS011;36542;51.700;8.846;2023-06-05T12:44:49;2.95;;;2.65;;
50585;SDS011;36542;51.700;8.846;2023-06-05T12:47:15;3.22;;;2.28;;
50585;SDS011;36542;51.700;8.846;2023-06-05T12:49:40;2.63;;;2.25;;
50585;SDS011;36542;51.700;8.846;2023-06-05T12:52:06;5.90;;;2.92;;
50585;SDS011;36542;51.700;8.846;2023-06-05T12:54:36;4.75;;;2.95;;
50585;SDS011;36542;51.700;8.846;2023-06-05T12:57:01;4.90;;;2.85;;
50585;SDS011;36542;51.700;8.846;2023-06-05T12:59:27;3.72;;;2.50;;
50585;SDS011;36542;51.700;8.846;2023-06-05T13:01:53;2.80;;;2.55;;
50585;SDS011;36542;51.700;8.846;2023-06-05T13:04:18;3.75;;;2.55;;
50585;SDS011;36542;51.700;8.846;2023-06-05T13:06:44;2.63;;;2.42;;
50585;SDS011;36542;51.700;8.846;2023-06-05T13:09:09;4.90;;;2.50;;
50585;SDS011;36542;51.700;8.846;2023-06-05T13:11:35;3.20;;;2.15;;
50585;SDS011;36542;51.700;8.846;2023-06-05T13:14:00;3.58;;;2.90;;
50585;SDS011;36542;51.700;8.846;2023-06-05T13:16:26;3.95;;;2.50;;
50585;SDS011;36542;51.700;8.846;2023-06-05T13:18:51;3.15;;;2.85;;
50585;SDS011;36542;51.700;8.846;2023-06-05T13:21:17;4.68;;;2.22;;
50585;SDS011;36542;51.700;8.846;2023-06-05T13:23:43;3.22;;;2.15;;
50585;SDS011;36542;51.700;8.846;2023-06-05T13:26:08;2.75;;;2.35;;
50585;SDS011;36542;51.700;8.846;2023-06-05T13:28:34;2.47;;;2.13;;
50585;SDS011;36542;51.700;8.846;2023-06-05T13:30:59;2.78;;;2.33;;
50585;SDS011;36542;51.700;8.846;2023-06-05T13:33:26;5.80;;;2.50;;
50585;SDS011;36542;51.700;8.846;2023-06-05T13:35:52;3.90;;;2.60;;
50585;SDS011;36542;51.700;8.846;2023-06-05T13:38:19;5.40;;;2.70;;
50585;SDS011;36542;51.700;8.846;2023-06-05T13:40:45;3.35;;;2.53;;
50585;SDS011;36542;51.700;8.846;2023-06-05T13:43:13;2.60;;;2.40;;
50585;SDS011;36542;51.700;8.846;2023-06-05T13:45:40;2.55;;;2.17;;
50585;SDS011;36542;51.700;8.846;2023-06-05T13:48:06;2.58;;;2.30;;
50585;SDS011;36542;51.700;8.846;2023-06-05T13:50:31;3.72;;;2.42;;
50585;SDS011;36542;51.700;8.846;2023-06-05T13:52:57;3.90;;;2.40;;
50585;SDS011;36542;51.700;8.846;2023-06-05T13:55:22;2.95;;;2.33;;
50585;SDS011;36542;51.700;8.846;2023-06-05T13:57:48;2.75;;;2.50;;
50585;SDS011;36542;51.700;8.846;2023-06-05T14:00:13;2.38;;;2.17;;
50585;SDS011;36542;51.700;8.846;2023-06-05T14:02:40;3.50;;;2.58;;
50585;SDS011;36542;51.700;8.846;2023-06-05T14:05:06;3.72;;;2.38;;
50585;SDS011;36542;51.700;8.846;2023-06-05T14:07:38;2.97;;;2.33;;
50585;SDS011;36542;51.700;8.846;2023-06-05T14:10:04;4.72;;;2.58;;
50585;SDS011;36542;51.700;8.846;2023-06-05T14:12:30;3.40;;;2.42;;
50585;SDS011;36542;51.700;8.846;2023-06-05T14:14:56;3.03;;;2.38;;
50585;SDS011;36542;51.700;8.846;2023-06-05T14:17:21;4.63;;;2.50;;
50585;SDS011;36542;51.700;8.846;2023-06-05T14:19:47;2.83;;;2.60;;
50585;SDS011;36542;51.700;8.846;2023-06-05T14:22:13;3.05;;;2.58;;
50585;SDS011;36542;51.700;8.846;2023-06-05T14:24:39;3.53;;;2.47;;
50585;SDS011;36542;51.700;8.846;2023-06-05T14:27:05;2.28;;;2.08;;
50585;SDS011;36542;51.700;8.846;2023-06-05T14:29:30;5.00;;;2.70;;
50585;SDS011;36542;51.700;8.846;2023-06-05T14:31:56;4.55;;;2.50;;
50585;SDS011;36542;51.700;8.846;2023-06-05T14:34:21;3.15;;;2.60;;
50585;SDS011;36542;51.700;8.846;2023-06-05T14:36:47;4.85;;;2.60;;
50585;SDS011;36542;51.700;8.846;2023-06-05T14:39:16;2.35;;;2.15;;
50585;SDS011;36542;51.700;8.846;2023-06-05T14:41:42;2.38;;;2.17;;
50585;SDS011;36542;51.700;8.846;2023-06-05T14:44:08;2.55;;;2.35;;
50585;SDS011;36542;51.700;8.846;2023-06-05T14:46:33;6.35;;;2.95;;
50585;SDS011;36542;51.700;8.846;2023-06-05T14:48:59;5.45;;;2.20;;
50585;SDS011;36542;51.700;8.846;2023-06-05T14:51:24;3.65;;;2.30;;
50585;SDS011;36542;51.700;8.846;2023-06-05T14:53:50;3.30;;;2.33;;
50585;SDS011;36542;51.700;8.846;2023-06-05T14:56:15;2.63;;;2.42;;
50585;SDS011;36542;51.700;8.846;2023-06-05T14:58:41;3.00;;;2.67;;
50585;SDS011;36542;51.700;8.846;2023-06-05T15:01:06;4.90;;;2.75;;
50585;SDS011;36542;51.700;8.846;2023-06-05T15:03:32;3.95;;;2.60;;
50585;SDS011;36542;51.700;8.846;2023-06-05T15:05:57;4.00;;;2.88;;
50585;SDS011;36542;51.700;8.846;2023-06-05T15:08:23;2.70;;;2.35;;
50585;SDS011;36542;51.700;8.846;2023-06-05T15:10:49;3.45;;;2.40;;
50585;SDS011;36542;51.700;8.846;2023-06-05T15:13:15;4.93;;;3.05;;
50585;SDS011;36542;51.700;8.846;2023-06-05T15:15:41;3.80;;;2.90;;
50585;SDS011;36542;51.700;8.846;2023-06-05T15:18:06;3.03;;;2.30;;
50585;SDS011;36542;51.700;8.846;2023-06-05T15:20:32;3.15;;;2.53;;
50585;SDS011;36542;51.700;8.846;2023-06-05T15:22:58;2.75;;;2.55;;
50585;SDS011;36542;51.700;8.846;2023-06-05T15:25:24;3.30;;;2.50;;
50585;SDS011;36542;51.700;8.846;2023-06-05T15:27:50;2.38;;;2.17;;
50585;SDS011;36542;51.700;8.846;2023-06-05T15:30:16;3.45;;;2.45;;